Weather at Murshid Sarhan Agricultural Airport

Public forecast

Using degrees Celsius for public forecast. Weather courtesy of forecast.io.

Closest aviation weather report (METAR) to Murshid Sarhan Agricultural Airport

Report is more than 6 hours old.

Closest report is Aleppo International Airport, 27.6 nm (51.1 km) ENE.

2024/06/24 06:00 (retrieved 1 day ago)

OSAP 240600Z 30008KT CAVOK 29/21 Q1006

Closest aviation forecast (TAF) to Murshid Sarhan Agricultural Airport

Forecast is more than 12 hours old.

Closest forecast is Aleppo International Airport, 27.6 nm (51.1 km) ENE.

2024/06/24 06:00 (retrieved 1 day ago)

TAF OSAP 240500Z 2406/2506 33010KT 9999 SCT030 TEMPO 2410/2415 32018KT 4000 SHRA SCT015CB SCT025